This is the latest recevied weather packets stored in our database for station/object AB4CZ-1. If no packets are shown the sender has not sent any weather packets the latest 10 day(s).
| Time | Temp. | Humidity | Pressure | Rain* | Wind** | Luminosity | Snow |
|---|---|---|---|---|---|---|---|
| 1777988201 | 20° C | 65% | 1017 hPa | 0 mm | - | - | - |
| 1777987893 | 20.56° C | 65% | 1017.1 hPa | 0 mm | - | - | - |
| 1777987594 | 19.44° C | 67% | 1017 hPa | 0 mm | - | - | - |
| 1777986701 | 18.33° C | 74% | 1016.6 hPa | 0 mm | - | - | - |
| 1777986395 | 17.22° C | 78% | 1016.6 hPa | 0 mm | - | - | - |
| 1777985497 | 15.56° C | 84% | 1016.5 hPa | 0 mm | - | - | - |
| 1777985245 | 15° C | 85% | 1016.4 hPa | 0 mm | - | - | - |
| 1777985192 | 15° C | 85% | 1016.4 hPa | 0 mm | - | - | - |
| 1777984294 | 13.33° C | 90% | 1016.3 hPa | 0 mm | - | - | - |
| 1777984001 | 12.78° C | 93% | 1016.4 hPa | 0 mm | - | - | - |
| 1777983394 | 11.67° C | 95% | 1016.3 hPa | 0 mm | - | - | - |
| 1777982195 | 10.56° C | 96% | 1016.4 hPa | 0 mm | - | - | - |
| 1777981892 | 10.56° C | 96% | 1016.3 hPa | 0 mm | - | - | - |
| 1777981592 | 10° C | 96% | 1016.1 hPa | 0 mm | - | - | - |
| 1777981295 | 10° C | 96% | 1016.1 hPa | 0 mm | - | - | - |
| 1777980700 | 9.44° C | 96% | 1015.9 hPa | 0 mm | - | - | - |
| 1777980405 | 9.44° C | 95% | 1015.8 hPa | 0 mm | - | - | - |
| 1777979795 | 9.44° C | 95% | 1015.6 hPa | 0 mm | - | - | - |
| 1777979492 | 9.44° C | 95% | 1015.8 hPa | 0 mm | - | - | - |
| 1777979201 | 9.44° C | 95% | 1015.5 hPa | 0 mm | - | - | - |
| 1777978892 | 9.44° C | 95% | 1015.4 hPa | 0 mm | - | - | - |
| 1777978301 | 9.44° C | 95% | 1015.5 hPa | 0 mm | - | - | - |
| 1777978008 | 9.44° C | 95% | 1015.5 hPa | 0 mm | - | - | - |
| 1777977692 | 9.44° C | 95% | 1015.5 hPa | 0 mm | - | - | - |
| 1777977092 | 9.44° C | 95% | 1015.6 hPa | 0 mm | - | - | - |
* Rain latest hour (hover to see other rain measurements)
** Current wind speed in m/s (hover to see current wind gust speed)